Time;durP1;ratioP1;P1;durP2;ratioP2;P2;SDS_P1;SDS_P2;PMS_P1;PMS_P2;Temp;Humidity;BMP_temperature;BMP_pressure;BME280_temperature;BME280_humidity;BME280_pressure;Samples;Min_cycle;Max_cycle;Signal;HPM_P1;HPM_P2
2022/05/11 00:00:40;;;;;;;7.10;3.50;;;;;;;5.47;59.30;99811.02;109176;1277;22472;-62
2022/05/11 00:03:08;;;;;;;7.70;4.20;;;;;;;5.42;59.10;99813.54;109217;1277;22439;-62
2022/05/11 00:05:38;;;;;;;7.60;4.20;;;;;;;5.39;59.11;99816.13;109059;1277;138144;-62
2022/05/11 00:08:07;;;;;;;7.00;3.80;;;;;;;5.36;59.59;99814.98;109140;1277;23478;-63
2022/05/11 00:10:35;;;;;;;9.10;4.70;;;;;;;5.33;59.57;99816.55;109118;1277;137404;-62
2022/05/11 00:13:04;;;;;;;7.50;4.10;;;;;;;5.29;59.72;99814.45;109157;1277;23199;-63
2022/05/11 00:15:32;;;;;;;9.10;4.30;;;;;;;5.27;59.58;99815.12;109127;1277;137055;-62
2022/05/11 00:18:01;;;;;;;7.60;4.50;;;;;;;5.27;59.55;99815.63;109155;1277;22439;-62
2022/05/11 00:20:29;;;;;;;9.30;4.20;;;;;;;5.28;59.54;99814.66;109260;1276;22433;-62
2022/05/11 00:22:58;;;;;;;8.30;4.60;;;;;;;5.26;59.52;99812.46;109088;1277;137848;-62
2022/05/11 00:25:26;;;;;;;7.70;4.30;;;;;;;5.24;59.55;99814.92;109227;1276;22447;-63
2022/05/11 00:27:56;;;;;;;10.70;5.30;;;;;;;5.23;59.85;99814.10;108988;1277;137155;-62
2022/05/11 00:30:26;;;;;;;9.60;4.90;;;;;;;5.19;59.79;99812.14;109151;1277;22454;-62
2022/05/11 00:32:57;;;;;;;11.60;5.50;;;;;;;5.15;60.22;99814.98;109172;1277;23219;-62
2022/05/11 00:35:29;;;;;;;10.70;5.80;;;;;;;5.12;60.02;99813.79;108847;1277;137646;-62
2022/05/11 00:37:57;;;;;;;11.70;5.50;;;;;;;5.09;60.51;99808.27;108948;1277;22448;-62
2022/05/11 00:40:25;;;;;;;11.50;5.30;;;;;;;5.04;60.20;99811.13;109079;1277;138166;-62
2022/05/11 00:42:53;;;;;;;12.70;5.70;;;;;;;5.00;60.56;99807.28;109133;1277;23189;-62
2022/05/11 00:45:21;;;;;;;9.40;6.00;;;;;;;4.97;60.60;99809.58;109209;1277;22486;-62
2022/05/11 00:47:57;;;;;;;21.20;6.90;;;;;;;4.92;60.78;99810.63;109082;1277;136733;-62
2022/05/11 00:50:30;;;;;;;15.10;6.00;;;;;;;4.88;61.00;99810.71;108929;1275;22421;-62
2022/05/11 00:53:09;;;;;;;14.40;5.10;;;;;;;4.83;61.11;99815.33;109017;1277;137372;-62
2022/05/11 00:55:41;;;;;;;10.30;6.10;;;;;;;4.80;61.30;99812.72;108926;1278;22400;-62
2022/05/11 00:58:09;;;;;;;10.40;5.60;;;;;;;4.76;61.39;99812.52;108790;1277;137470;-62
2022/05/11 01:00:37;;;;;;;11.60;6.90;;;;;;;4.72;61.63;99817.50;109146;1277;23218;-62
2022/05/11 01:03:07;;;;;;;11.80;6.50;;;;;;;4.68;61.82;99817.00;109195;1277;22407;-65
2022/05/11 01:05:35;;;;;;;12.70;6.90;;;;;;;4.65;62.11;99818.29;108799;1279;137776;-65
2022/05/11 01:08:04;;;;;;;13.20;6.30;;;;;;;4.62;62.18;99820.90;109198;1277;22391;-65
2022/05/11 01:10:32;;;;;;;11.60;6.60;;;;;;;4.59;62.25;99816.65;109057;1277;138278;-65
2022/05/11 01:13:02;;;;;;;18.70;6.90;;;;;;;4.57;62.37;99818.25;109177;1277;23990;-65
2022/05/11 01:15:31;;;;;;;19.00;7.60;;;;;;;4.53;62.60;99817.95;108928;1277;138970;-64
2022/05/11 01:18:03;;;;;;;15.60;6.70;;;;;;;4.50;62.73;99815.17;108992;1277;22480;-65
2022/05/11 01:20:33;;;;;;;15.20;7.70;;;;;;;4.47;62.96;99817.14;109196;1277;22542;-65
2022/05/11 01:23:13;;;;;;;14.80;7.60;;;;;;;4.45;63.25;99813.34;108803;1279;138306;-62
2022/05/11 01:25:41;;;;;;;16.00;8.30;;;;;;;4.44;63.55;99808.73;109213;1277;22447;-62
2022/05/11 01:28:11;;;;;;;17.10;8.00;;;;;;;4.43;63.52;99809.60;109109;1277;139943;-65
2022/05/11 01:30:42;;;;;;;20.60;8.10;;;;;;;4.42;63.37;99806.16;109172;1277;22268;-65
2022/05/11 01:33:13;;;;;;;15.20;8.00;;;;;;;4.40;63.33;99808.41;109166;1277;22572;-65
2022/05/11 01:36:00;;;;;;;17.70;8.10;;;;;;;4.39;63.59;99806.73;109059;1277;139795;-65
2022/05/11 01:38:31;;;;;;;13.30;7.00;;;;;;;4.39;63.61;99806.65;109135;1276;23200;-65
2022/05/11 01:41:00;;;;;;;12.20;6.90;;;;;;;4.37;63.71;99808.08;108777;1279;139162;-65
2022/05/11 01:43:30;;;;;;;16.40;7.30;;;;;;;4.36;63.83;99807.45;109187;1277;22513;-64
2022/05/11 01:45:58;;;;;;;14.40;7.50;;;;;;;4.33;63.98;99806.17;108981;1277;138613;-65
2022/05/11 01:48:27;;;;;;;10.70;6.50;;;;;;;4.30;63.94;99804.73;109227;1277;22422;-65
2022/05/11 01:50:55;;;;;;;15.90;7.50;;;;;;;4.28;64.23;99802.75;109202;1277;22415;-65
2022/05/11 01:53:23;;;;;;;18.00;7.50;;;;;;;4.28;64.48;99801.67;109065;1277;137955;-65
2022/05/11 01:55:51;;;;;;;11.80;6.30;;;;;;;4.26;64.47;99806.02;108990;1277;22460;-65
2022/05/11 01:58:19;;;;;;;14.60;7.00;;;;;;;4.24;64.46;99797.93;109066;1277;138166;-65
2022/05/11 02:00:47;;;;;;;15.70;7.40;;;;;;;4.21;64.77;99796.60;109196;1277;23337;-65
2022/05/11 02:03:18;;;;;;;16.00;7.90;;;;;;;4.20;64.75;99796.39;109139;1277;22537;-64
2022/05/11 02:08:37;;;;;;;14.10;6.90;;;;;;;4.14;65.09;99794.92;109177;1276;22514;-63
2022/05/11 02:11:05;;;;;;;18.10;7.30;;;;;;;4.11;65.16;99791.61;109101;1277;137400;-63
2022/05/11 02:13:33;;;;;;;13.70;7.40;;;;;;;4.09;65.25;99791.27;109144;1277;22506;-63
2022/05/11 02:16:01;;;;;;;18.00;7.50;;;;;;;4.08;65.37;99792.06;108880;1278;137466;-63
2022/05/11 02:18:30;;;;;;;9.60;6.50;;;;;;;4.07;65.44;99789.98;109160;1277;23638;-63
2022/05/11 02:20:58;;;;;;;14.80;6.60;;;;;;;4.06;65.33;99790.07;109159;1277;22494;-63
2022/05/11 02:23:26;;;;;;;12.00;6.90;;;;;;;4.06;65.54;99792.27;109057;1277;137258;-63
2022/05/11 02:25:56;;;;;;;12.80;7.00;;;;;;;4.06;65.60;99789.33;109159;1277;22438;-62
2022/05/11 02:28:24;;;;;;;15.70;7.30;;;;;;;4.07;65.62;99790.81;109091;1277;138385;-63
2022/05/11 02:30:53;;;;;;;13.60;6.60;;;;;;;4.09;65.70;99793.14;109191;1277;22439;-63
2022/05/11 02:33:21;;;;;;;17.50;7.20;;;;;;;4.11;65.56;99789.62;109178;1277;22432;-63
2022/05/11 02:35:51;;;;;;;14.00;8.20;;;;;;;4.14;65.55;99788.63;108882;1277;139162;-63
2022/05/11 02:38:22;;;;;;;13.50;7.70;;;;;;;4.18;65.62;99790.80;109151;1277;22378;-63
2022/05/11 02:40:51;;;;;;;13.30;7.40;;;;;;;4.19;65.52;99792.05;108964;1277;138919;-63
2022/05/11 02:43:19;;;;;;;15.20;7.50;;;;;;;4.21;65.52;99792.00;109153;1277;22418;-63
2022/05/11 02:45:47;;;;;;;17.50;8.70;;;;;;;4.22;65.59;99794.48;109096;1277;141046;-63
2022/05/11 02:48:18;;;;;;;15.40;7.40;;;;;;;4.24;65.53;99792.95;109172;1277;23120;-63
2022/05/11 02:50:49;;;;;;;20.30;7.70;;;;;;;4.25;65.72;99791.25;109035;1277;22906;-63
2022/05/11 02:53:17;;;;;;;13.70;7.60;;;;;;;4.23;65.83;99785.03;109069;1277;138184;-63
2022/05/11 02:55:49;;;;;;;18.20;8.30;;;;;;;4.27;65.85;99787.44;108104;1277;25463;-62
2022/05/11 02:58:18;;;;;;;15.10;8.60;;;;;;;4.28;65.89;99785.61;104704;1277;137794;-62
2022/05/11 03:00:48;;;;;;;16.70;8.10;;;;;;;4.31;65.89;99788.14;104762;1277;22827;-62
2022/05/11 03:03:18;;;;;;;14.20;7.70;;;;;;;4.34;65.99;99788.27;109119;1277;22536;-63
2022/05/11 03:05:47;;;;;;;18.30;8.00;;;;;;;4.34;66.14;99784.46;109043;1277;137017;-62
2022/05/11 03:08:15;;;;;;;18.60;8.10;;;;;;;4.40;66.43;99785.45;109036;1277;22456;-63
2022/05/11 03:10:44;;;;;;;16.10;7.80;;;;;;;4.45;66.41;99785.45;109062;1277;137286;-63
2022/05/11 03:13:12;;;;;;;14.40;8.20;;;;;;;4.50;66.39;99786.08;109010;1277;22451;-63
2022/05/11 03:15:41;;;;;;;16.90;7.90;;;;;;;4.57;66.09;99790.02;109029;1277;139157;-63
2022/05/11 03:18:09;;;;;;;16.30;7.90;;;;;;;4.64;66.03;99790.89;109137;1277;22479;-63
2022/05/11 03:20:37;;;;;;;15.30;7.60;;;;;;;4.73;65.67;99787.63;109214;1277;22505;-63
2022/05/11 03:23:05;;;;;;;16.20;7.50;;;;;;;4.83;64.85;99782.69;108995;1277;137821;-63
2022/05/11 03:25:33;;;;;;;12.80;7.90;;;;;;;4.94;64.42;99785.96;109194;1276;22528;-63
2022/05/11 03:28:01;;;;;;;18.60;8.80;;;;;;;5.06;63.97;99786.32;109013;1277;138025;-63
2022/05/11 03:30:30;;;;;;;18.70;9.20;;;;;;;5.16;63.59;99785.80;109114;1277;22527;-63
2022/05/11 03:35:46;;;;;;;;;;;;;;;5.39;62.96;99782.42;108941;1277;137375;-63
2022/05/11 03:38:14;;;;;;;14.90;8.80;;;;;;;5.50;62.92;99782.19;108978;1278;22418;-63
2022/05/11 03:40:42;;;;;;;17.00;8.60;;;;;;;5.58;62.34;99783.33;109046;1277;137633;-63
2022/05/11 03:43:10;;;;;;;15.10;7.90;;;;;;;5.70;62.05;99792.77;109141;1277;22446;-63
2022/05/11 03:45:38;;;;;;;20.50;7.60;;;;;;;5.81;61.77;99792.70;109045;1277;139387;-63
2022/05/11 03:48:06;;;;;;;11.90;7.60;;;;;;;5.93;61.64;99790.44;109209;1276;22271;-63
2022/05/11 03:50:36;;;;;;;12.00;6.90;;;;;;;6.06;61.23;99793.86;108962;1278;22559;-63
2022/05/11 03:53:04;;;;;;;18.70;6.90;;;;;;;6.19;60.79;99798.48;108964;1277;137783;-63
2022/05/11 03:55:32;;;;;;;10.80;6.90;;;;;;;6.32;60.69;99800.02;109171;1277;23673;-63
2022/05/11 03:58:01;;;;;;;10.70;6.40;;;;;;;6.45;60.32;99801.27;109030;1277;138838;-63
2022/05/11 04:00:29;;;;;;;14.00;7.00;;;;;;;6.58;59.92;99799.54;109090;1277;22550;-63
2022/05/11 04:02:58;;;;;;;12.90;6.30;;;;;;;6.73;59.67;99798.41;109122;1277;23283;-63
2022/05/11 04:05:27;;;;;;;12.90;6.10;;;;;;;6.88;59.37;99794.98;108350;1279;137361;-63
2022/05/11 04:07:56;;;;;;;25.00;6.80;;;;;;;7.02;58.82;99793.60;109126;1277;23606;-63
2022/05/11 04:10:24;;;;;;;15.50;7.00;;;;;;;7.15;58.30;99795.17;108907;1278;137055;-63
2022/05/11 04:12:53;;;;;;;24.10;8.50;;;;;;;7.28;57.81;99795.90;109198;1277;23211;-63
2022/05/11 04:15:28;;;;;;;13.70;6.20;;;;;;;7.41;57.90;99793.17;109135;1277;22423;-63
2022/05/11 04:17:56;;;;;;;16.60;6.10;;;;;;;7.54;57.30;99795.91;109039;1277;138197;-64
2022/05/11 04:20:24;;;;;;;16.50;5.80;;;;;;;7.67;56.26;99795.24;109193;1277;22438;-63
2022/05/11 04:22:54;;;;;;;14.60;6.70;;;;;;;7.79;56.20;99799.14;109025;1277;138352;-63
2022/05/11 04:25:23;;;;;;;18.90;7.40;;;;;;;7.91;55.77;99797.16;109022;1278;22458;-63
2022/05/11 04:27:51;;;;;;;10.30;5.90;;;;;;;8.03;55.24;99797.98;109054;1277;138278;-63
2022/05/11 04:30:22;;;;;;;10.70;6.20;;;;;;;8.14;54.81;99792.77;109141;1277;22614;-63
2022/05/11 04:32:51;;;;;;;15.40;5.80;;;;;;;8.25;54.19;99795.73;109032;1277;23271;-64
2022/05/11 04:35:19;;;;;;;11.90;6.30;;;;;;;8.36;54.26;99795.86;109038;1277;138981;-64
2022/05/11 04:37:47;;;;;;;9.00;5.00;;;;;;;8.48;53.76;99795.10;109042;1279;23430;-63
2022/05/11 04:40:16;;;;;;;10.00;4.60;;;;;;;8.57;53.03;99793.84;109073;1276;138227;-63
2022/05/11 04:42:45;;;;;;;10.70;4.60;;;;;;;8.71;52.21;99796.73;109094;1277;22427;-63
2022/05/11 04:45:13;;;;;;;9.20;4.70;;;;;;;8.84;51.83;99790.30;109160;1276;22511;-63
2022/05/11 04:47:42;;;;;;;11.80;5.50;;;;;;;8.97;51.20;99789.20;109009;1277;138957;-64
2022/05/11 04:50:10;;;;;;;9.30;4.60;;;;;;;9.15;50.86;99788.57;109156;1277;23602;-64
2022/05/11 04:52:47;;;;;;;10.60;4.60;;;;;;;9.40;50.77;99787.25;109068;1277;137174;-64
2022/05/11 04:55:15;;;;;;;11.80;4.60;;;;;;;9.74;50.46;99784.87;109135;1277;23132;-64
2022/05/11 04:57:43;;;;;;;10.60;4.80;;;;;;;10.16;49.87;99779.14;109036;1277;138072;-63
2022/05/11 05:00:12;;;;;;;11.60;4.30;;;;;;;10.61;48.74;99781.27;109161;1277;23614;-64
2022/05/11 05:02:40;;;;;;;11.20;4.20;;;;;;;11.04;47.21;99778.06;109126;1276;22455;-64
2022/05/11 05:05:10;;;;;;;7.10;4.20;;;;;;;11.44;46.35;99775.30;109046;1276;137581;-64
2022/05/11 05:07:40;;;;;;;12.40;3.70;;;;;;;11.87;45.89;99770.63;109191;1277;22465;-64
2022/05/11 05:10:09;;;;;;;15.40;4.30;;;;;;;12.34;45.04;99769.95;108984;1277;138736;-64
2022/05/11 05:12:37;;;;;;;7.00;3.20;;;;;;;12.79;43.82;99769.66;109141;1277;22519;-64
2022/05/11 05:15:06;;;;;;;8.20;4.40;;;;;;;13.23;42.63;99770.29;109115;1277;22438;-64
2022/05/11 05:17:37;;;;;;;8.30;3.90;;;;;;;13.60;41.33;99769.88;108951;1277;138952;-63
2022/05/11 05:20:07;;;;;;;13.40;3.70;;;;;;;13.91;40.44;99762.34;109139;1277;22427;-64
2022/05/11 05:22:35;;;;;;;10.10;3.60;;;;;;;14.22;39.89;99760.52;108894;1277;137849;-64
2022/05/11 05:25:04;;;;;;;9.70;4.20;;;;;;;14.57;39.59;99764.43;109179;1276;23744;-64
2022/05/11 05:27:32;;;;;;;8.20;3.30;;;;;;;14.95;39.10;99767.22;109132;1277;22483;-64
2022/05/11 05:32:47;;;;;;;9.90;3.50;;;;;;;15.43;36.75;99767.80;109114;1277;22411;-64
2022/05/11 05:35:16;;;;;;;4.30;2.70;;;;;;;15.57;36.71;99766.69;108960;1277;138445;-64
2022/05/11 05:37:44;;;;;;;6.30;3.50;;;;;;;15.80;36.29;99768.84;109136;1276;22443;-64
2022/05/11 05:40:13;;;;;;;8.80;3.20;;;;;;;16.01;35.67;99767.41;109043;1277;137518;-64
2022/05/11 05:42:41;;;;;;;8.20;3.10;;;;;;;16.15;34.91;99765.14;109119;1277;22482;-64
2022/05/11 05:45:10;;;;;;;7.60;2.90;;;;;;;16.23;34.80;99765.34;109110;1277;22492;-65
2022/05/11 05:47:38;;;;;;;9.20;3.60;;;;;;;16.42;34.13;99765.05;109069;1276;137697;-64
2022/05/11 05:50:07;;;;;;;5.60;2.60;;;;;;;16.58;33.62;99760.09;109030;1278;22439;-65
2022/05/11 05:52:36;;;;;;;6.20;2.70;;;;;;;16.70;33.54;99760.81;109035;1277;137508;-65
2022/05/11 05:55:04;;;;;;;18.50;3.30;;;;;;;16.81;33.07;99766.19;109127;1277;22545;-64
2022/05/11 05:57:33;;;;;;;9.90;3.10;;;;;;;16.87;33.26;99768.52;109166;1277;23213;-64
2022/05/11 06:00:03;;;;;;;7.50;2.50;;;;;;;16.91;33.13;99768.71;108986;1277;137773;-64
2022/05/11 06:02:33;;;;;;;5.00;2.30;;;;;;;16.88;32.71;99760.77;109127;1277;22434;-64
2022/05/11 06:05:01;;;;;;;6.50;2.20;;;;;;;16.72;32.08;99760.13;109040;1277;137429;-65
2022/05/11 06:07:30;;;;;;;7.80;2.80;;;;;;;16.43;32.36;99762.08;105048;1278;22585;-64
2022/05/11 06:09:58;;;;;;;6.90;2.30;;;;;;;16.16;32.59;99759.80;109071;1276;138550;-64
2022/05/11 06:12:27;;;;;;;5.10;2.40;;;;;;;15.91;33.07;99758.75;109120;1277;22341;-64
2022/05/11 06:14:55;;;;;;;13.50;3.30;;;;;;;15.73;33.25;99756.80;109154;1277;22421;-64
2022/05/11 06:17:23;;;;;;;3.90;2.30;;;;;;;15.67;33.40;99758.61;109047;1277;137515;-64
2022/05/11 06:19:52;;;;;;;7.80;2.30;;;;;;;15.58;33.08;99756.52;109032;1278;22243;-64
2022/05/11 06:22:21;;;;;;;5.50;2.10;;;;;;;15.46;32.93;99754.42;109000;1277;138574;-64
2022/05/11 06:24:49;;;;;;;4.10;1.60;;;;;;;15.28;32.05;99752.17;109107;1277;22399;-64
2022/05/11 06:27:19;;;;;;;2.80;1.30;;;;;;;15.07;31.95;99760.67;109141;1277;22445;-64
2022/05/11 06:29:54;;;;;;;4.40;2.10;;;;;;;14.95;32.06;99758.94;109071;1277;137817;-64
2022/05/11 06:32:23;;;;;;;2.90;1.50;;;;;;;14.80;32.25;99753.99;109139;1277;22415;-64
2022/05/11 06:34:52;;;;;;;5.20;2.50;;;;;;;14.65;32.61;99754.16;109023;1277;137837;-64
2022/05/11 06:37:23;;;;;;;4.60;1.60;;;;;;;14.55;32.70;99752.88;108974;1277;22395;-64
2022/05/11 06:39:51;;;;;;;3.30;1.50;;;;;;;14.48;32.98;99744.71;107709;1277;138329;-64
2022/05/11 06:42:20;;;;;;;4.60;1.50;;;;;;;14.48;33.73;99739.17;109043;1277;23446;-64
2022/05/11 06:44:49;;;;;;;4.40;1.80;;;;;;;14.53;33.59;99738.85;109020;1279;22468;-64
2022/05/11 06:47:18;;;;;;;4.30;1.70;;;;;;;14.57;33.50;99734.98;109010;1277;137853;-64
2022/05/11 06:49:46;;;;;;;4.70;1.60;;;;;;;14.59;33.14;99738.91;109134;1277;22431;-64
2022/05/11 06:52:14;;;;;;;2.80;2.00;;;;;;;14.62;32.13;99738.75;108959;1279;138574;-64
2022/05/11 07:00:29;;;;;;;2.80;1.60;;;;;;;14.58;31.56;99730.54;108552;1281;22544;-65
2022/05/11 07:02:57;;;;;;;6.30;1.70;;;;;;;14.50;31.98;99729.14;108767;1281;22434;-65
2022/05/11 07:05:34;;;;;;;7.30;2.00;;;;;;;14.47;32.45;99724.75;108684;1281;139134;-64
2022/05/11 07:08:02;;;;;;;3.80;1.90;;;;;;;14.44;32.92;99714.78;108761;1281;22471;-64
2022/05/11 07:10:31;;;;;;;3.50;2.20;;;;;;;14.50;32.26;99719.48;108685;1281;138706;-64
2022/05/11 07:12:59;;;;;;;3.70;1.90;;;;;;;14.48;31.92;99714.72;108823;1281;23441;-64
2022/05/11 07:15:28;;;;;;;6.50;2.00;;;;;;;14.42;32.08;99712.27;108784;1281;22509;-64
2022/05/11 07:17:59;;;;;;;6.40;2.50;;;;;;;14.43;32.40;99710.63;108548;1281;139774;-64
2022/05/11 07:20:36;;;;;;;4.20;2.20;;;;;;;14.45;32.14;99706.27;108809;1281;22460;-64
2022/05/11 07:23:05;;;;;;;3.90;2.10;;;;;;;14.50;32.49;99702.00;108645;1281;137680;-64
2022/05/11 07:25:33;;;;;;;4.50;1.80;;;;;;;14.55;32.70;99700.18;108799;1281;22488;-64
2022/05/11 07:28:01;;;;;;;3.20;1.90;;;;;;;14.60;32.72;99704.48;108747;1281;22456;-64
2022/05/11 07:30:33;;;;;;;8.30;2.40;;;;;;;14.64;31.90;99702.88;108494;1277;137286;-64
2022/05/11 07:35:30;;;;;;;6.20;2.20;;;;;;;14.59;31.92;99705.04;101731;1309;545355;-64
2022/05/11 07:37:59;;;;;;;3.40;2.10;;;;;;;14.55;32.32;99700.34;103974;1287;23901;-64
2022/05/11 07:40:28;;;;;;;4.30;1.90;;;;;;;14.58;33.25;99698.83;108160;1286;138960;-64
2022/05/11 07:42:56;;;;;;;4.90;2.50;;;;;;;14.64;33.12;99690.16;108153;1287;22482;-65
2022/05/11 07:45:24;;;;;;;5.20;2.20;;;;;;;14.71;33.17;99690.34;108124;1287;22543;-64
2022/05/11 07:47:52;;;;;;;8.50;2.30;;;;;;;14.79;32.86;99685.21;108200;1286;136592;-64
2022/05/11 07:50:20;;;;;;;4.90;2.50;;;;;;;14.85;32.19;99682.98;108414;1283;222511;-65
2022/05/11 07:52:48;;;;;;;5.60;2.10;;;;;;;14.91;32.69;99677.02;108479;1283;138028;-65
2022/05/11 07:55:18;;;;;;;5.90;2.60;;;;;;;14.95;32.54;99676.84;108545;1283;22445;-64
2022/05/11 08:00:33;;;;;;;7.40;2.60;;;;;;;15.03;32.49;99680.63;108440;1284;137395;-64
2022/05/11 08:03:01;;;;;;;7.10;2.10;;;;;;;15.05;31.87;99678.48;108580;1283;22502;-64
2022/05/11 08:05:30;;;;;;;5.50;2.50;;;;;;;15.04;32.32;99679.52;108441;1283;138896;-65
2022/05/11 08:08:01;;;;;;;12.60;2.50;;;;;;;15.06;32.56;99682.42;108578;1283;22442;-65
2022/05/11 08:10:31;;;;;;;5.20;2.10;;;;;;;15.10;32.14;99673.52;108365;1284;139142;-65
2022/05/11 08:13:00;;;;;;;6.90;2.20;;;;;;;15.13;32.55;99668.63;108504;1284;22459;-64
2022/05/11 08:15:30;;;;;;;6.70;2.60;;;;;;;15.16;31.77;99672.48;108460;1284;23335;-64
2022/05/11 08:17:59;;;;;;;4.80;2.60;;;;;;;15.19;30.63;99670.15;108186;1284;138764;-64
2022/05/11 08:20:29;;;;;;;5.40;3.00;;;;;;;15.20;30.20;99669.11;108230;1287;22498;-65
2022/05/11 08:22:58;;;;;;;8.60;4.50;;;;;;;15.18;30.38;99671.52;108123;1287;138106;-65
2022/05/11 08:25:27;;;;;;;12.30;5.60;;;;;;;15.20;30.69;99675.75;108227;1285;23144;-64
2022/05/11 08:27:55;;;;;;;14.50;5.60;;;;;;;15.24;30.88;99673.15;108122;1287;22555;-64
2022/05/11 08:36:12;;;;;;;10.40;5.70;;;;;;;15.39;30.12;99666.30;108554;1282;138149;-65
2022/05/11 08:38:42;;;;;;;9.40;6.30;;;;;;;15.39;30.31;99656.58;108659;1282;22391;-64
2022/05/11 08:41:26;;;;;;;11.40;5.20;;;;;;;15.41;31.02;99655.14;108398;1282;137019;-65
2022/05/11 08:43:57;;;;;;;9.40;4.90;;;;;;;15.44;31.00;99652.41;108392;1284;22421;-65
2022/05/11 08:46:32;;;;;;;9.10;5.40;;;;;;;15.49;31.02;99652.27;108179;1284;138101;-65
2022/05/11 08:49:11;;;;;;;12.70;6.30;;;;;;;15.53;31.18;99649.44;108481;1284;22542;-65
2022/05/11 08:52:15;;;;;;;18.40;9.00;;;;;;;15.62;30.55;99648.27;108442;1282;22595;-65
2022/05/11 08:54:51;;;;;;;17.80;9.70;;;;;;;15.66;29.87;99648.80;107643;1290;138562;-65
2022/05/11 08:57:23;;;;;;;19.40;9.50;;;;;;;15.67;30.26;99648.23;107737;1289;22483;-66
2022/05/11 08:59:53;;;;;;;18.30;9.70;;;;;;;15.73;30.17;99651.48;107712;1289;138418;-65
2022/05/11 09:02:24;;;;;;;20.50;9.80;;;;;;;15.76;29.24;99650.62;107542;1289;23035;-65
2022/05/11 09:04:55;;;;;;;21.20;10.70;;;;;;;15.73;29.57;99636.59;107846;1288;138740;-64
2022/05/11 09:07:23;;;;;;;18.00;9.10;;;;;;;15.72;30.03;99627.04;107766;1289;22419;-65
2022/05/11 09:09:52;;;;;;;14.50;7.40;;;;;;;15.77;29.44;99623.42;107941;1288;22460;-63
2022/05/11 09:12:20;;;;;;;15.50;7.40;;;;;;;15.80;29.82;99622.69;107732;1288;138413;-65
2022/05/11 09:14:57;;;;;;;17.40;8.50;;;;;;;15.82;29.11;99622.99;107896;1289;22269;-65
2022/05/11 09:17:41;;;;;;;19.70;8.90;;;;;;;15.83;28.89;99621.55;107665;1289;137585;-64
2022/05/11 09:20:14;;;;;;;19.30;10.30;;;;;;;15.83;29.03;99621.77;107870;1289;23202;-64
2022/05/11 09:23:03;;;;;;;21.90;10.40;;;;;;;15.86;28.82;99622.90;107794;1288;139925;-64
2022/05/11 09:25:36;;;;;;;20.60;10.20;;;;;;;15.88;28.93;99623.73;107809;1289;22291;-65
2022/05/11 09:28:31;;;;;;;21.40;9.60;;;;;;;15.91;29.07;99624.09;107825;1284;22624;-64
2022/05/11 09:31:12;;;;;;;17.50;10.20;;;;;;;15.95;29.51;99624.02;108760;1279;138767;-64
2022/05/11 09:34:08;;;;;;;22.30;9.20;;;;;;;16.00;29.76;99618.91;109007;1279;22458;-64
2022/05/11 09:36:56;;;;;;;18.80;8.70;;;;;;;16.09;28.76;99620.33;108943;1278;137547;-64
2022/05/11 09:39:25;;;;;;;15.70;8.40;;;;;;;16.11;28.36;99613.51;109116;1277;22462;-65
2022/05/11 09:41:55;;;;;;;14.90;7.70;;;;;;;16.11;28.45;99619.11;109085;1277;138993;-65
2022/05/11 09:44:43;;;;;;;13.00;6.90;;;;;;;16.09;28.68;99603.85;109047;1277;22425;-64
2022/05/11 09:47:31;;;;;;;14.00;7.70;;;;;;;16.09;29.64;99601.70;108967;1277;138879;-64
2022/05/11 09:50:32;;;;;;;16.30;8.00;;;;;;;16.12;29.57;99599.75;109161;1277;22439;-65
2022/05/11 09:53:35;;;;;;;14.30;7.20;;;;;;;16.18;29.55;99599.71;108159;1285;138099;-65
2022/05/11 09:56:33;;;;;;;16.40;7.10;;;;;;;16.23;29.64;99603.95;108157;1285;22498;-65
2022/05/11 09:59:39;;;;;;;17.30;6.90;;;;;;;16.31;28.95;99598.09;108091;1286;138053;-65
2022/05/11 10:02:32;;;;;;;21.40;9.20;;;;;;;16.35;29.36;99601.23;108229;1285;22886;-65
2022/05/11 10:05:14;;;;;;;14.10;7.60;;;;;;;16.40;28.76;99599.52;107952;1285;138801;-64
2022/05/11 10:07:47;;;;;;;13.50;7.40;;;;;;;16.43;27.86;99597.34;108121;1287;22537;-64
2022/05/11 10:10:26;;;;;;;15.10;7.90;;;;;;;16.43;28.22;99595.42;108237;1286;23353;-64
2022/05/11 10:13:24;;;;;;;15.00;8.30;;;;;;;16.43;27.82;99593.33;107994;1287;138972;-64
2022/05/11 10:21:56;;;;;;;16.80;6.50;;;;;;;16.52;27.97;99586.93;108232;1285;22705;-65
2022/05/11 10:24:44;;;;;;;11.70;6.00;;;;;;;16.59;27.27;99583.27;108019;1284;138523;-64
2022/05/11 10:27:29;;;;;;;12.10;5.10;;;;;;;16.61;28.08;99581.19;104329;1287;25336;-64
2022/05/11 10:30:18;;;;;;;15.40;6.00;;;;;;;16.66;28.29;99581.27;108811;1277;137886;-65
2022/05/11 10:32:55;;;;;;;12.40;5.90;;;;;;;16.68;28.44;99577.56;109066;1277;22557;-65
2022/05/11 10:35:31;;;;;;;9.10;5.40;;;;;;;16.71;28.32;99577.23;109022;1277;137656;-65
2022/05/11 10:38:25;;;;;;;8.60;4.80;;;;;;;16.72;28.61;99572.00;109157;1277;22545;-64
2022/05/11 10:41:05;;;;;;;7.80;3.90;;;;;;;16.77;29.59;99567.52;108879;1276;137917;-65
2022/05/11 10:43:55;;;;;;;8.60;4.30;;;;;;;16.84;29.20;99561.15;109211;1277;22535;-65
2022/05/11 10:46:38;;;;;;;13.80;5.20;;;;;;;16.93;29.37;99558.58;109266;1276;22445;-64
2022/05/11 10:49:28;;;;;;;10.00;4.20;;;;;;;17.05;30.35;99553.27;108923;1279;138826;-65
2022/05/11 10:52:07;;;;;;;6.80;4.30;;;;;;;17.18;29.59;99553.55;109004;1278;23310;-65
2022/05/11 10:55:03;;;;;;;9.50;3.50;;;;;;;17.27;29.20;99542.89;108644;1280;137697;-64
2022/05/11 10:57:53;;;;;;;8.20;3.20;;;;;;;17.34;29.10;99537.69;109023;1278;22254;-64
2022/05/11 11:00:26;;;;;;;8.90;3.70;;;;;;;17.38;28.30;99538.89;108914;1277;138030;-64
2022/05/11 11:03:04;;;;;;;6.10;3.30;;;;;;;17.39;28.48;99541.75;108652;1280;23203;-65
2022/05/11 11:05:40;;;;;;;8.60;3.60;;;;;;;17.41;28.79;99534.72;108809;1277;137575;-65
2022/05/11 11:08:31;;;;;;;6.00;3.60;;;;;;;17.47;28.60;99537.08;109231;1277;22482;-65
2022/05/11 11:11:22;;;;;;;11.10;3.50;;;;;;;17.52;28.10;99530.37;109146;1277;137264;-65
2022/05/11 11:14:00;;;;;;;6.20;3.40;;;;;;;17.54;27.97;99529.20;109164;1277;22417;-65
2022/05/11 11:16:49;;;;;;;7.10;2.70;;;;;;;17.54;28.68;99527.97;109161;1277;139174;-64
2022/05/11 11:19:17;;;;;;;7.30;2.50;;;;;;;17.58;29.25;99529.39;109007;1278;23100;-65
2022/05/11 11:21:45;;;;;;;6.30;2.20;;;;;;;17.65;28.98;99529.55;109004;1277;23092;-65
2022/05/11 11:24:25;;;;;;;6.80;2.50;;;;;;;17.72;29.19;99527.55;108890;1278;137248;-66
2022/05/11 11:26:59;;;;;;;9.00;2.10;;;;;;;17.80;29.74;99526.18;108873;1279;23186;-64
2022/05/11 11:29:37;;;;;;;10.50;2.40;;;;;;;17.87;28.81;99524.85;108946;1277;137927;-65
2022/05/11 11:32:13;;;;;;;5.80;2.60;;;;;;;17.88;29.00;99522.27;109157;1276;23278;-65
2022/05/11 11:35:05;;;;;;;3.60;1.80;;;;;;;17.91;29.00;99520.33;109165;1277;22454;-65
2022/05/11 11:37:39;;;;;;;5.40;2.20;;;;;;;17.91;28.90;99517.19;108300;1286;23346;-65
2022/05/11 11:40:13;;;;;;;8.40;2.90;;;;;;;17.96;29.18;99518.31;108450;1284;23684;-65
2022/05/11 11:42:43;;;;;;;7.60;3.00;;;;;;;18.00;28.32;99520.50;108159;1286;137154;-65
2022/05/11 11:45:31;;;;;;;4.90;2.30;;;;;;;18.02;28.43;99506.77;108326;1285;22299;-65
2022/05/11 11:48:04;;;;;;;10.20;3.00;;;;;;;18.05;28.39;99501.63;108197;1285;138043;-65
2022/05/11 11:51:02;;;;;;;9.30;3.00;;;;;;;18.09;28.71;99499.02;108292;1285;22449;-65
2022/05/11 11:53:52;;;;;;;6.60;3.00;;;;;;;18.16;28.91;99496.90;107630;1290;138407;-65
2022/05/11 11:56:44;;;;;;;5.50;2.80;;;;;;;18.23;29.16;99501.38;108008;1287;22389;-65
2022/05/11 11:59:32;;;;;;;7.60;3.60;;;;;;;18.27;28.47;99494.61;107713;1287;137353;-63
2022/05/11 12:02:19;;;;;;;5.10;2.70;;;;;;;18.31;29.40;99492.73;107954;1287;23617;-65
2022/05/11 12:04:54;;;;;;;6.70;2.90;;;;;;;18.37;28.53;99488.09;107878;1288;23252;-65
2022/05/11 12:16:19;;;;;;;9.20;3.40;;;;;;;18.57;29.17;99475.45;108621;1281;23300;-65
2022/05/11 12:18:47;;;;;;;6.10;3.30;;;;;;;18.65;28.18;99478.74;108747;1280;137597;-65
2022/05/11 12:21:29;;;;;;;8.00;3.40;;;;;;;18.68;28.58;99471.38;108807;1279;22462;-65
2022/05/11 12:23:59;;;;;;;7.20;3.50;;;;;;;18.76;28.64;99467.02;108706;1279;137849;-65
2022/05/11 12:26:32;;;;;;;9.10;4.40;;;;;;;18.81;27.98;99472.02;108683;1280;22428;-65